createdAt,value
2017-03-31T00:00:20.826Z,99.99
2017-03-31T00:01:33.548Z,99.99
2017-03-31T00:02:46.749Z,99.99
2017-03-31T00:03:59.962Z,99.99
2017-03-31T00:05:13.193Z,99.99
2017-03-31T00:06:26.444Z,99.99
2017-03-31T00:07:39.682Z,99.99
2017-03-31T00:08:52.386Z,99.99
2017-03-31T00:10:05.101Z,99.99
2017-03-31T00:11:17.293Z,99.99
2017-03-31T00:12:30.514Z,99.99
2017-03-31T00:13:43.725Z,99.99
2017-03-31T00:14:56.935Z,99.99
2017-03-31T00:16:09.657Z,99.99
2017-03-31T00:17:22.918Z,99.99
2017-03-31T00:18:36.156Z,99.99
2017-03-31T00:19:49.423Z,99.99
2017-03-31T00:21:02.144Z,99.99
2017-03-31T00:22:14.849Z,99.99
2017-03-31T00:23:27.062Z,99.99
2017-03-31T00:24:40.317Z,99.99
2017-03-31T00:25:53.047Z,99.99
2017-03-31T00:27:05.801Z,99.99
2017-03-31T00:28:18.529Z,99.99
2017-03-31T00:29:30.741Z,99.99
2017-03-31T00:30:43.498Z,99.99
2017-03-31T00:31:56.234Z,99.99
2017-03-31T00:33:09.455Z,99.99
2017-03-31T00:34:22.727Z,99.99
2017-03-31T00:35:35.480Z,99.99
2017-03-31T00:36:48.730Z,99.99
2017-03-31T00:38:01.982Z,99.99
2017-03-31T00:39:15.256Z,99.99
2017-03-31T00:40:28.052Z,99.99
2017-03-31T00:41:41.300Z,99.99
2017-03-31T00:42:54.534Z,99.99
2017-03-31T00:44:07.785Z,99.99
2017-03-31T00:45:20.472Z,99.99
2017-03-31T00:46:33.675Z,99.99
2017-03-31T00:47:46.942Z,99.99
2017-03-31T00:49:00.199Z,99.99
2017-03-31T00:50:12.916Z,99.99
2017-03-31T00:51:25.125Z,99.99
2017-03-31T00:52:37.884Z,99.99
2017-03-31T00:53:50.601Z,99.99
2017-03-31T00:55:03.882Z,99.99
2017-03-31T00:56:17.113Z,99.99
2017-03-31T00:57:30.341Z,99.99
2017-03-31T00:58:43.063Z,99.99
2017-03-31T00:59:55.797Z,99.99
2017-03-31T01:01:08.560Z,99.99
2017-03-31T01:02:21.282Z,99.99
2017-03-31T01:03:34.020Z,99.99
2017-03-31T01:04:47.213Z,99.99
2017-03-31T01:05:59.921Z,99.99
2017-03-31T01:07:13.118Z,99.99
2017-03-31T01:08:26.350Z,99.99
2017-03-31T01:09:39.567Z,99.99
2017-03-31T01:10:52.860Z,99.99
2017-03-31T01:12:06.083Z,99.99
2017-03-31T01:13:18.839Z,99.99
2017-03-31T01:14:31.530Z,99.99
2017-03-31T01:15:44.775Z,99.99
2017-03-31T01:16:58.001Z,99.99
2017-03-31T01:18:09.685Z,99.99
2017-03-31T01:19:22.924Z,99.99
2017-03-31T01:20:36.151Z,99.99
2017-03-31T01:21:49.350Z,99.99
2017-03-31T01:23:02.063Z,99.99
2017-03-31T01:24:15.293Z,99.99
2017-03-31T01:25:28.023Z,99.99
2017-03-31T01:26:41.251Z,99.99
2017-03-31T01:27:54.507Z,99.99
2017-03-31T01:29:07.733Z,99.91
2017-03-31T01:30:20.980Z,99.99
2017-03-31T01:31:33.689Z,99.73
2017-03-31T01:32:46.405Z,98.96
2017-03-31T01:33:59.638Z,98.38
2017-03-31T01:35:12.847Z,98.19
2017-03-31T01:36:26.104Z,97.9
2017-03-31T01:37:39.347Z,98
2017-03-31T01:38:52.601Z,98.1
2017-03-31T01:40:05.322Z,98.28
2017-03-31T01:41:18.579Z,98.67
2017-03-31T01:42:31.805Z,98.96
2017-03-31T01:43:45.029Z,98.96
2017-03-31T01:44:58.353Z,98.28
2017-03-31T01:46:11.063Z,98.86
2017-03-31T01:47:24.301Z,98.96
2017-03-31T01:48:37.555Z,99.24
2017-03-31T01:49:50.260Z,99.15
2017-03-31T01:51:02.966Z,99.01
2017-03-31T01:52:16.232Z,99.29
2017-03-31T01:53:29.438Z,98.77
2017-03-31T01:54:42.658Z,99.15
2017-03-31T01:55:55.889Z,99.48
2017-03-31T01:57:09.113Z,99.29
2017-03-31T01:58:22.387Z,99.48
2017-03-31T01:59:35.618Z,99.68
2017-03-31T02:00:48.819Z,99.77
2017-03-31T02:02:02.075Z,99.99
2017-03-31T02:03:15.343Z,99.99
2017-03-31T02:04:28.111Z,99.99
2017-03-31T02:05:40.837Z,99.99
2017-03-31T02:06:54.050Z,99.99
2017-03-31T02:08:07.291Z,99.99
2017-03-31T02:09:20.002Z,99.99
2017-03-31T02:10:33.249Z,99.99
2017-03-31T02:11:46.004Z,99.99
2017-03-31T02:12:58.710Z,99.99
2017-03-31T02:14:11.951Z,99.99
2017-03-31T02:15:25.165Z,99.99
2017-03-31T02:16:37.877Z,99.99
2017-03-31T02:17:51.105Z,99.99
2017-03-31T02:19:04.349Z,99.99
2017-03-31T02:20:17.589Z,99.99
2017-03-31T02:21:30.346Z,99.99
2017-03-31T02:22:43.607Z,99.99
2017-03-31T02:23:56.818Z,99.99
2017-03-31T02:25:10.036Z,99.99
2017-03-31T02:26:22.766Z,99.99
2017-03-31T02:27:36.042Z,99.99
2017-03-31T02:28:49.267Z,99.99
2017-03-31T02:30:02.507Z,99.99
2017-03-31T02:31:15.771Z,99.99
2017-03-31T02:32:28.993Z,99.99
2017-03-31T02:33:42.217Z,99.99
2017-03-31T02:34:55.476Z,99.99
2017-03-31T02:36:08.228Z,99.99
2017-03-31T02:37:21.503Z,99.99
2017-03-31T02:38:34.723Z,99.99
2017-03-31T02:39:47.527Z,99.99
2017-03-31T02:41:00.251Z,99.99
2017-03-31T02:42:13.490Z,99.99
2017-03-31T02:43:26.778Z,99.99
2017-03-31T02:44:39.510Z,99.99
2017-03-31T02:45:52.258Z,99.99
2017-03-31T02:47:05.467Z,99.99
2017-03-31T02:48:18.713Z,99.99
2017-03-31T02:49:30.947Z,99.99
2017-03-31T02:50:44.218Z,99.99
2017-03-31T02:51:57.443Z,99.99
2017-03-31T02:53:10.661Z,99.99
2017-03-31T02:54:23.880Z,99.99
2017-03-31T02:55:35.605Z,99.99
2017-03-31T02:56:48.852Z,99.99
2017-03-31T02:58:02.151Z,99.99
2017-03-31T02:59:15.423Z,99.99
2017-03-31T03:00:28.647Z,99.99
2017-03-31T03:01:41.880Z,99.99
2017-03-31T03:02:55.124Z,99.99
2017-03-31T03:04:07.855Z,99.99
2017-03-31T03:05:21.131Z,99.99
2017-03-31T03:06:34.358Z,99.99
2017-03-31T03:07:47.565Z,99.99
2017-03-31T03:09:00.296Z,99.82
2017-03-31T03:10:13.025Z,99.73
2017-03-31T03:11:25.766Z,99.91
2017-03-31T03:12:38.482Z,99.82
2017-03-31T03:13:51.699Z,99.91
2017-03-31T03:15:04.397Z,99.63
2017-03-31T03:16:17.143Z,99.99
2017-03-31T03:17:29.875Z,99.99
2017-03-31T03:18:43.082Z,99.99
2017-03-31T03:19:55.770Z,99.99
2017-03-31T03:21:08.473Z,99.99
2017-03-31T03:22:21.709Z,99.82
2017-03-31T03:23:35.022Z,99.99
2017-03-31T03:24:48.256Z,99.99
2017-03-31T03:26:01.481Z,99.77
2017-03-31T03:27:14.714Z,99.68
2017-03-31T03:28:27.967Z,99.99
2017-03-31T03:29:41.193Z,99.99
2017-03-31T03:30:54.464Z,99.87
2017-03-31T03:32:07.685Z,99.77
2017-03-31T03:33:20.913Z,99.77
2017-03-31T03:34:33.630Z,99.99
2017-03-31T03:35:46.342Z,99.96
2017-03-31T03:36:58.583Z,99.99
2017-03-31T03:38:11.803Z,99.82
2017-03-31T03:39:24.495Z,99.99
2017-03-31T03:40:37.737Z,99.99
2017-03-31T03:41:50.488Z,99.99
2017-03-31T03:43:03.217Z,99.99
2017-03-31T03:44:16.485Z,99.99
2017-03-31T03:45:29.704Z,99.99
2017-03-31T03:46:42.924Z,99.99
2017-03-31T03:47:55.111Z,99.99
2017-03-31T03:49:08.420Z,99.99
2017-03-31T03:50:21.662Z,99.99
2017-03-31T03:51:34.371Z,99.99
2017-03-31T03:52:47.049Z,99.99
2017-03-31T03:54:00.262Z,99.82
2017-03-31T03:55:13.524Z,99.99
2017-03-31T03:56:26.748Z,99.99
2017-03-31T03:57:39.443Z,99.99
2017-03-31T03:58:52.665Z,99.99
2017-03-31T04:00:05.908Z,99.99
2017-03-31T04:01:19.127Z,99.99
2017-03-31T04:02:31.895Z,99.99
2017-03-31T04:03:44.628Z,99.99
2017-03-31T04:04:57.876Z,99.99
2017-03-31T04:06:11.127Z,99.99
2017-03-31T04:07:23.845Z,99.99
2017-03-31T04:08:37.076Z,99.99
2017-03-31T04:09:50.327Z,99.99
2017-03-31T04:11:02.555Z,99.99
2017-03-31T04:12:15.798Z,99.99
2017-03-31T04:13:29.028Z,99.99
2017-03-31T04:14:42.249Z,99.99
2017-03-31T04:15:55.476Z,99.99
2017-03-31T04:17:08.684Z,99.99
2017-03-31T04:18:21.934Z,99.99
2017-03-31T04:19:35.131Z,99.99
2017-03-31T04:20:48.409Z,99.99
2017-03-31T04:22:01.653Z,99.99
2017-03-31T04:23:14.407Z,99.99
2017-03-31T04:24:27.148Z,99.99
2017-03-31T04:25:39.879Z,99.99
2017-03-31T04:26:53.169Z,99.99
2017-03-31T04:28:06.440Z,99.99
2017-03-31T04:29:19.198Z,99.99
2017-03-31T04:30:32.432Z,99.99
2017-03-31T04:31:45.650Z,99.99
2017-03-31T04:32:58.332Z,99.99
2017-03-31T04:34:11.040Z,99.99
2017-03-31T04:35:23.747Z,99.99
2017-03-31T04:36:36.460Z,99.99
2017-03-31T04:37:49.675Z,99.99
2017-03-31T04:39:02.923Z,99.99
2017-03-31T04:40:15.623Z,99.99
2017-03-31T04:41:28.335Z,99.99
2017-03-31T04:42:41.554Z,99.99
2017-03-31T04:43:54.758Z,99.99
2017-03-31T04:45:07.992Z,99.99
2017-03-31T04:46:21.235Z,99.99
2017-03-31T04:47:34.461Z,99.99
2017-03-31T04:48:47.680Z,99.99
2017-03-31T04:50:00.957Z,99.99
2017-03-31T04:51:13.712Z,99.99
2017-03-31T04:52:25.980Z,99.99
2017-03-31T04:53:39.203Z,99.99
2017-03-31T04:54:52.403Z,99.99
2017-03-31T04:56:05.608Z,99.99
2017-03-31T04:57:18.842Z,99.99
2017-03-31T04:58:32.078Z,99.99
2017-03-31T04:59:44.803Z,99.99
2017-03-31T05:00:57.539Z,99.99
2017-03-31T05:02:10.280Z,99.99
2017-03-31T05:03:23.535Z,99.99
2017-03-31T05:04:36.775Z,99.99
2017-03-31T05:05:49.992Z,99.99
2017-03-31T05:07:03.240Z,99.99
2017-03-31T05:08:16.482Z,99.99
2017-03-31T05:09:29.709Z,99.99
2017-03-31T05:10:42.928Z,99.99
2017-03-31T05:11:56.161Z,99.99
2017-03-31T05:13:09.430Z,99.99
2017-03-31T05:14:22.163Z,99.99
2017-03-31T05:15:35.432Z,99.99
2017-03-31T05:16:48.723Z,99.99
2017-03-31T05:18:01.980Z,99.99
2017-03-31T05:19:14.734Z,99.99
2017-03-31T05:20:27.959Z,99.99
2017-03-31T05:21:40.687Z,99.99
2017-03-31T05:22:53.905Z,99.99
2017-03-31T05:24:06.114Z,99.99
2017-03-31T05:25:18.348Z,99.99
2017-03-31T05:26:31.573Z,99.99
2017-03-31T05:27:44.869Z,99.99
2017-03-31T05:28:58.103Z,99.99
2017-03-31T05:30:11.309Z,99.99
2017-03-31T05:31:24.573Z,99.99
2017-03-31T05:32:37.307Z,99.99
2017-03-31T05:33:50.529Z,99.99
2017-03-31T05:35:03.748Z,99.99
2017-03-31T05:36:16.471Z,99.99
2017-03-31T05:37:29.725Z,99.99
2017-03-31T05:38:41.938Z,99.99
2017-03-31T05:39:55.184Z,99.99
2017-03-31T05:41:08.443Z,99.99
2017-03-31T05:42:21.662Z,99.99
2017-03-31T05:43:35.101Z,99.99
2017-03-31T05:44:48.327Z,99.99
2017-03-31T05:46:01.015Z,99.99
2017-03-31T05:47:14.263Z,99.99
2017-03-31T05:48:27.490Z,99.99
2017-03-31T05:49:40.710Z,99.99
2017-03-31T05:50:53.958Z,99.99
2017-03-31T05:52:06.653Z,99.99
2017-03-31T05:53:19.898Z,99.99
2017-03-31T05:54:32.614Z,99.99
2017-03-31T05:55:45.829Z,99.99
2017-03-31T05:56:59.078Z,99.99
2017-03-31T05:58:12.319Z,99.99
2017-03-31T05:59:25.018Z,99.99
2017-03-31T06:00:37.752Z,99.99
2017-03-31T06:01:50.462Z,99.99
2017-03-31T06:03:03.664Z,99.99
2017-03-31T06:04:16.895Z,99.99
2017-03-31T06:05:30.122Z,99.99
2017-03-31T06:06:43.341Z,99.99
2017-03-31T06:07:56.591Z,99.99
2017-03-31T06:09:09.814Z,99.99
2017-03-31T06:10:22.529Z,99.99
2017-03-31T06:11:35.265Z,99.99
2017-03-31T06:12:48.522Z,99.99
2017-03-31T06:14:01.746Z,99.99
2017-03-31T06:15:13.460Z,99.99
2017-03-31T06:16:26.698Z,99.99
2017-03-31T06:17:39.916Z,99.99
2017-03-31T06:18:53.138Z,99.99
2017-03-31T06:20:06.438Z,99.99
2017-03-31T06:21:19.694Z,99.99
2017-03-31T06:22:32.929Z,99.99
2017-03-31T06:23:46.170Z,99.99
2017-03-31T06:24:58.377Z,99.99
2017-03-31T06:26:11.673Z,99.99
2017-03-31T06:27:24.884Z,99.99
2017-03-31T06:28:38.152Z,99.99
2017-03-31T06:29:51.421Z,99.99
2017-03-31T06:31:04.183Z,99.99
2017-03-31T06:32:17.418Z,99.99
2017-03-31T06:33:30.660Z,99.99
2017-03-31T06:34:43.904Z,99.99
2017-03-31T06:35:57.138Z,99.99
2017-03-31T06:37:10.375Z,99.99
2017-03-31T06:38:23.607Z,99.99
2017-03-31T06:39:36.352Z,99.99
2017-03-31T06:40:49.049Z,99.99
2017-03-31T06:42:02.277Z,99.99
2017-03-31T06:43:15.525Z,99.99
2017-03-31T06:44:28.733Z,99.99
2017-03-31T06:45:41.487Z,99.99
2017-03-31T06:46:54.711Z,99.99
2017-03-31T06:48:07.438Z,99.99
2017-03-31T06:49:20.146Z,99.99
2017-03-31T06:50:32.842Z,99.99
2017-03-31T06:51:46.081Z,99.99
2017-03-31T06:52:59.372Z,99.99
2017-03-31T06:54:12.576Z,99.99
2017-03-31T06:55:25.806Z,99.99
2017-03-31T06:56:38.522Z,99.99
2017-03-31T06:57:51.719Z,99.99
2017-03-31T06:59:04.432Z,99.99
2017-03-31T07:00:17.691Z,99.99
2017-03-31T07:01:30.926Z,99.99
2017-03-31T07:02:44.187Z,99.99
2017-03-31T07:03:57.415Z,99.99
2017-03-31T07:05:10.179Z,99.99
2017-03-31T07:06:23.375Z,99.99
2017-03-31T07:07:36.087Z,99.99
2017-03-31T07:08:49.297Z,99.99
2017-03-31T07:10:02.007Z,99.99
2017-03-31T07:11:15.245Z,99.99
2017-03-31T07:12:28.467Z,99.99
2017-03-31T07:13:41.688Z,99.99
2017-03-31T07:14:54.908Z,99.99
2017-03-31T07:16:07.638Z,99.99
2017-03-31T07:17:20.877Z,99.99
2017-03-31T07:18:34.146Z,99.99
2017-03-31T07:19:46.847Z,99.99
2017-03-31T07:21:00.098Z,99.99
2017-03-31T07:22:12.829Z,99.99
2017-03-31T07:23:26.064Z,99.99
2017-03-31T07:24:38.805Z,99.99
2017-03-31T07:25:52.063Z,99.99
2017-03-31T07:27:04.255Z,99.99
2017-03-31T07:28:17.488Z,99.99
2017-03-31T07:29:30.696Z,99.99
2017-03-31T07:30:42.918Z,99.99
2017-03-31T07:31:56.160Z,99.99
2017-03-31T07:33:09.371Z,99.99
2017-03-31T07:34:22.598Z,99.99
2017-03-31T07:35:35.791Z,99.99
2017-03-31T07:36:49.036Z,99.99
2017-03-31T07:38:02.281Z,99.99
2017-03-31T07:39:15.511Z,99.99
2017-03-31T07:40:28.292Z,99.99
2017-03-31T07:41:41.522Z,99.99
2017-03-31T07:42:54.746Z,99.99
2017-03-31T07:44:07.481Z,99.99
2017-03-31T07:45:20.707Z,99.99
2017-03-31T07:46:33.942Z,99.99
2017-03-31T07:47:46.672Z,99.99
2017-03-31T07:48:59.940Z,99.99
2017-03-31T07:50:13.183Z,99.99
2017-03-31T07:51:26.455Z,99.99
2017-03-31T07:52:39.151Z,99.99
2017-03-31T07:53:51.858Z,99.99
2017-03-31T07:55:04.579Z,99.99
2017-03-31T07:56:17.290Z,99.99
2017-03-31T07:57:30.523Z,99.99
2017-03-31T07:58:43.782Z,99.99
2017-03-31T07:59:57.008Z,99.99
2017-03-31T08:01:10.264Z,99.99
2017-03-31T08:02:22.970Z,99.99
2017-03-31T08:03:35.688Z,99.99
2017-03-31T08:04:48.916Z,99.99
2017-03-31T08:06:02.132Z,99.99
2017-03-31T08:07:15.371Z,99.99
2017-03-31T08:08:28.599Z,99.99
2017-03-31T08:09:41.836Z,99.99
2017-03-31T08:10:54.543Z,99.99
2017-03-31T08:12:07.744Z,99.99
2017-03-31T08:13:19.426Z,99.99
2017-03-31T08:14:32.910Z,99.99
2017-03-31T08:15:46.285Z,99.99
2017-03-31T08:16:58.992Z,99.99
2017-03-31T08:18:12.218Z,99.99
2017-03-31T08:19:25.453Z,99.99
2017-03-31T08:20:38.685Z,99.99
2017-03-31T08:21:51.905Z,99.99
2017-03-31T08:23:04.605Z,99.99
2017-03-31T08:24:17.854Z,99.99
2017-03-31T08:25:30.579Z,99.99
2017-03-31T08:26:42.814Z,99.99
2017-03-31T08:27:56.059Z,99.99
2017-03-31T08:29:08.764Z,99.99
2017-03-31T08:30:22.027Z,99.99
2017-03-31T08:31:34.259Z,99.99
2017-03-31T08:32:47.495Z,99.99
2017-03-31T08:34:00.710Z,99.99
2017-03-31T08:35:13.944Z,99.99
2017-03-31T08:36:27.151Z,99.99
2017-03-31T08:37:40.392Z,99.99
2017-03-31T08:38:52.580Z,99.99
2017-03-31T08:40:05.813Z,99.99
2017-03-31T08:41:19.079Z,99.99
2017-03-31T08:42:31.795Z,99.99
2017-03-31T08:43:44.522Z,99.99
2017-03-31T08:44:56.731Z,99.99
2017-03-31T08:46:09.479Z,99.99
2017-03-31T08:47:22.700Z,99.99
2017-03-31T08:48:35.950Z,99.99
2017-03-31T08:49:49.164Z,99.99
2017-03-31T08:51:01.899Z,99.99
2017-03-31T08:52:15.109Z,99.99
2017-03-31T08:53:28.366Z,99.99
2017-03-31T08:54:41.596Z,99.99
2017-03-31T08:55:53.777Z,99.99
2017-03-31T08:57:07.009Z,99.99
2017-03-31T08:58:20.227Z,99.99
2017-03-31T08:59:32.925Z,99.99
2017-03-31T09:00:45.134Z,99.99
2017-03-31T09:01:57.336Z,99.99
2017-03-31T09:03:10.552Z,99.99
2017-03-31T09:04:23.746Z,99.99
2017-03-31T09:05:35.935Z,99.99
2017-03-31T09:06:48.628Z,99.99
2017-03-31T09:08:01.884Z,99.99
2017-03-31T09:09:14.597Z,99.99
2017-03-31T09:10:27.811Z,99.99
2017-03-31T09:11:41.063Z,99.99
2017-03-31T09:12:53.755Z,99.99
2017-03-31T09:14:06.960Z,99.99
2017-03-31T09:15:20.214Z,99.99
2017-03-31T09:16:32.930Z,99.99
2017-03-31T09:17:45.674Z,99.99
2017-03-31T09:18:58.378Z,99.99
2017-03-31T09:20:11.594Z,99.99
2017-03-31T09:21:24.795Z,99.99
2017-03-31T09:22:37.516Z,99.99
2017-03-31T09:23:50.746Z,99.99
2017-03-31T09:25:03.468Z,99.99
2017-03-31T09:26:16.198Z,99.99
2017-03-31T09:27:29.397Z,99.99
2017-03-31T09:28:42.099Z,99.99
2017-03-31T09:29:54.287Z,99.99
2017-03-31T09:31:07.478Z,99.99
2017-03-31T09:32:20.175Z,99.99
2017-03-31T09:33:32.908Z,99.99
2017-03-31T09:34:45.094Z,99.99
2017-03-31T09:35:57.786Z,99.99
2017-03-31T09:37:10.985Z,99.99
2017-03-31T09:38:24.220Z,99.99
2017-03-31T09:39:37.473Z,99.99
2017-03-31T09:40:50.215Z,99.99
2017-03-31T09:42:02.966Z,99.91
2017-03-31T09:43:16.206Z,99.99
2017-03-31T09:44:29.449Z,99.58
2017-03-31T09:45:42.180Z,99.39
2017-03-31T09:46:55.407Z,97.47
2017-03-31T09:48:08.135Z,95.36
2017-03-31T09:49:20.881Z,95.46
2017-03-31T09:50:34.104Z,94.59
2017-03-31T09:51:46.857Z,94.98
2017-03-31T09:53:00.111Z,95.98
2017-03-31T09:54:13.349Z,96.84
2017-03-31T09:55:26.592Z,95.84
2017-03-31T09:56:39.296Z,94.07
2017-03-31T09:57:52.533Z,91.63
2017-03-31T09:59:05.761Z,92.01
2017-03-31T10:00:18.975Z,90.95
2017-03-31T10:01:32.266Z,89.51
2017-03-31T10:02:45.509Z,89.42
2017-03-31T10:03:58.212Z,90.81
2017-03-31T10:05:11.429Z,91
2017-03-31T10:06:24.665Z,89.56
2017-03-31T10:07:37.890Z,88.98
2017-03-31T10:08:51.099Z,88.98
2017-03-31T10:10:04.330Z,89.08
2017-03-31T10:11:17.542Z,90.14
2017-03-31T10:12:30.734Z,90.04
2017-03-31T10:13:43.993Z,90.33
2017-03-31T10:14:56.744Z,90.42
2017-03-31T10:16:09.445Z,91.57
2017-03-31T10:17:22.672Z,92.34
2017-03-31T10:18:34.891Z,92.44
2017-03-31T10:19:48.111Z,90.81
2017-03-31T10:21:01.320Z,89.32
2017-03-31T10:22:14.543Z,87.35
2017-03-31T10:23:27.762Z,84.41
2017-03-31T10:24:41.010Z,81.61
2017-03-31T10:25:53.744Z,80.98
2017-03-31T10:27:07.001Z,79
2017-03-31T10:28:20.225Z,75.92
2017-03-31T10:29:33.428Z,74.74
2017-03-31T10:30:46.136Z,74.97
2017-03-31T10:31:59.361Z,74.84
2017-03-31T10:33:12.133Z,75.84
2017-03-31T10:34:25.409Z,76.38
2017-03-31T10:35:38.663Z,75.71
2017-03-31T10:36:51.885Z,75.13
2017-03-31T10:38:05.099Z,76.86
2017-03-31T10:39:18.319Z,76.53
2017-03-31T10:40:31.566Z,76.96
2017-03-31T10:41:44.798Z,77.31
2017-03-31T10:42:57.538Z,78.85
2017-03-31T10:44:10.774Z,81.56
2017-03-31T10:45:24.006Z,84.21
2017-03-31T10:46:35.703Z,85.61
2017-03-31T10:47:48.926Z,86.91
2017-03-31T10:49:01.682Z,87.49
2017-03-31T10:50:14.404Z,89.26
2017-03-31T10:51:27.652Z,89.75
2017-03-31T10:52:40.851Z,90.42
2017-03-31T10:53:53.060Z,90.95
2017-03-31T10:55:06.277Z,89.89
2017-03-31T10:56:19.508Z,90.66
2017-03-31T10:57:32.778Z,91.05
2017-03-31T10:58:45.510Z,90.8
2017-03-31T10:59:58.710Z,88.21
2017-03-31T11:01:10.924Z,85.8
2017-03-31T11:02:24.169Z,83.06
2017-03-31T11:03:37.403Z,78.81
2017-03-31T11:04:49.594Z,76.09
2017-03-31T11:06:02.327Z,75.74
2017-03-31T11:07:15.030Z,76.03
2017-03-31T11:08:28.269Z,77.44
2017-03-31T11:09:41.543Z,78.65
2017-03-31T11:10:54.762Z,79.77
2017-03-31T11:12:06.996Z,81.21
2017-03-31T11:13:20.236Z,82.86
2017-03-31T11:14:32.939Z,83.53
2017-03-31T11:15:46.167Z,84.5
2017-03-31T11:16:58.370Z,82.53
2017-03-31T11:18:11.608Z,79.69
2017-03-31T11:19:24.862Z,80.21
2017-03-31T11:20:38.112Z,81.27
2017-03-31T11:21:50.332Z,78.67
2017-03-31T11:23:03.547Z,79.82
2017-03-31T11:24:16.791Z,77.42
2017-03-31T11:25:29.496Z,77.08
2017-03-31T11:26:42.762Z,75.86
2017-03-31T11:27:55.489Z,75.42
2017-03-31T11:29:08.725Z,77.5
2017-03-31T11:30:21.970Z,78.13
2017-03-31T11:31:34.670Z,79.05
2017-03-31T11:32:47.901Z,79.82
2017-03-31T11:34:00.686Z,79.15
2017-03-31T11:35:13.411Z,80.27
2017-03-31T11:36:26.621Z,80.27
2017-03-31T11:37:39.350Z,80.71
2017-03-31T11:38:52.605Z,81.28
2017-03-31T11:40:05.332Z,81.86
2017-03-31T11:41:18.583Z,81.86
2017-03-31T11:42:31.297Z,82.15
2017-03-31T11:43:44.544Z,81.76
2017-03-31T11:44:56.774Z,81.32
2017-03-31T11:46:09.987Z,80.46
2017-03-31T11:47:23.216Z,79.15
2017-03-31T11:48:35.460Z,77.75
2017-03-31T11:49:48.731Z,77.78
2017-03-31T11:51:01.445Z,77.11
2017-03-31T11:52:14.689Z,75.09
2017-03-31T11:53:27.388Z,74.01
2017-03-31T11:54:40.663Z,72.56
2017-03-31T11:55:53.906Z,72.31
2017-03-31T11:57:06.169Z,73.05
2017-03-31T11:58:19.419Z,73.43
2017-03-31T11:59:31.125Z,72.18
2017-03-31T12:00:43.877Z,70.73
2017-03-31T12:01:57.096Z,72.14
2017-03-31T12:03:09.839Z,70.41
2017-03-31T12:04:22.570Z,71.56
2017-03-31T12:05:35.814Z,70.7
2017-03-31T12:06:49.060Z,68.52
2017-03-31T12:08:01.791Z,67.3
2017-03-31T12:09:15.063Z,67
2017-03-31T12:10:28.309Z,67.78
2017-03-31T12:11:41.559Z,68.35
2017-03-31T12:12:53.865Z,70.54
2017-03-31T12:14:06.634Z,72.05
2017-03-31T12:15:19.348Z,73.74
2017-03-31T12:16:32.077Z,75.54
2017-03-31T12:17:44.818Z,76.65
2017-03-31T12:18:57.527Z,78.19
2017-03-31T12:20:10.776Z,78.25
2017-03-31T12:21:23.964Z,79.69
2017-03-31T12:22:37.228Z,80.71
2017-03-31T12:23:50.441Z,80.42
2017-03-31T12:25:02.645Z,79.27
2017-03-31T12:26:15.386Z,76.26
2017-03-31T12:27:28.756Z,75.34
2017-03-31T12:28:41.994Z,75.76
2017-03-31T12:29:54.205Z,75.28
2017-03-31T12:31:07.445Z,74.13
2017-03-31T12:32:20.698Z,73.78
2017-03-31T12:33:33.441Z,73.68
2017-03-31T12:34:46.175Z,73.53
2017-03-31T12:35:58.364Z,73.91
2017-03-31T12:37:11.090Z,74.88
2017-03-31T12:38:24.322Z,75.99
2017-03-31T12:39:37.076Z,76.28
2017-03-31T12:40:49.826Z,76.76
2017-03-31T12:42:02.582Z,76.48
2017-03-31T12:43:15.276Z,73.58
2017-03-31T12:44:28.532Z,72.85
2017-03-31T12:45:41.818Z,71.22
2017-03-31T12:46:54.537Z,69.16
2017-03-31T12:48:07.792Z,66.78
2017-03-31T12:49:20.513Z,66.91
2017-03-31T12:50:33.746Z,68.26
2017-03-31T12:51:46.998Z,68.43
2017-03-31T12:52:59.715Z,68.52
2017-03-31T12:54:13.008Z,65.27
2017-03-31T12:55:26.259Z,64.18
2017-03-31T12:56:39.492Z,62.76
2017-03-31T12:57:52.215Z,61.43
2017-03-31T12:59:04.918Z,61.43
2017-03-31T13:00:18.132Z,60.66
2017-03-31T13:01:30.858Z,62.08
2017-03-31T13:02:44.077Z,63.79
2017-03-31T13:03:57.339Z,62.98
2017-03-31T13:05:10.642Z,62.82
2017-03-31T13:06:23.876Z,62.66
2017-03-31T13:07:37.146Z,63.53
2017-03-31T13:08:50.387Z,63.31
2017-03-31T13:10:03.143Z,63.53
2017-03-31T13:11:16.366Z,64.27
2017-03-31T13:12:29.098Z,64.24
2017-03-31T13:13:41.839Z,64.56
2017-03-31T13:14:55.100Z,64.56
2017-03-31T13:16:07.834Z,62.34
2017-03-31T13:17:20.567Z,61.33
2017-03-31T13:18:33.771Z,58.95
2017-03-31T13:19:47.013Z,57.04
2017-03-31T13:21:00.301Z,58.47
2017-03-31T13:22:13.521Z,59.69
2017-03-31T13:23:26.755Z,62.4
2017-03-31T13:24:39.987Z,64.76
2017-03-31T13:25:52.745Z,66.62
2017-03-31T13:27:06.013Z,68.52
2017-03-31T13:28:19.309Z,70.12
2017-03-31T13:29:32.592Z,70.41
2017-03-31T13:30:44.822Z,69.35
2017-03-31T13:31:57.543Z,70.09
2017-03-31T13:33:10.344Z,70.41
2017-03-31T13:34:23.687Z,70.31
2017-03-31T13:35:36.897Z,70.21
2017-03-31T13:36:50.143Z,69.83
2017-03-31T13:38:03.395Z,70.86
2017-03-31T13:39:16.158Z,70.47
2017-03-31T13:40:29.373Z,70.95
2017-03-31T13:41:42.613Z,69.6
2017-03-31T13:42:55.329Z,69.35
2017-03-31T13:44:08.546Z,69.93
2017-03-31T13:45:21.300Z,68.9
2017-03-31T13:46:34.571Z,66.59
2017-03-31T13:47:47.833Z,65.37
2017-03-31T13:49:01.036Z,63.89
2017-03-31T13:50:13.782Z,62.95
2017-03-31T13:51:27.035Z,63.43
2017-03-31T13:52:40.284Z,64.18
2017-03-31T13:53:53.572Z,64.05
2017-03-31T13:55:06.810Z,64.31
2017-03-31T13:56:20.080Z,63.28
2017-03-31T13:57:33.315Z,61.28
2017-03-31T13:58:46.557Z,59.8
2017-03-31T13:59:59.266Z,60.57
2017-03-31T14:01:12.030Z,61.99
2017-03-31T14:02:25.252Z,60.93
2017-03-31T14:03:38.517Z,62.47
2017-03-31T14:04:51.760Z,62.54
2017-03-31T14:06:04.483Z,62.66
2017-03-31T14:07:17.221Z,63.12
2017-03-31T14:08:30.489Z,61.86
2017-03-31T14:09:43.724Z,62.47
2017-03-31T14:10:56.501Z,61.51
2017-03-31T14:12:09.768Z,60.25
2017-03-31T14:13:22.516Z,60.96
2017-03-31T14:14:35.740Z,61.41
2017-03-31T14:15:48.989Z,61.31
2017-03-31T14:17:02.223Z,62.66
2017-03-31T14:18:14.985Z,61.83
2017-03-31T14:19:28.195Z,59.34
2017-03-31T14:20:40.951Z,60.69
2017-03-31T14:21:54.205Z,60.89
2017-03-31T14:23:07.459Z,61.25
2017-03-31T14:24:19.714Z,63.08
2017-03-31T14:25:32.981Z,63.43
2017-03-31T14:26:46.224Z,65.63
2017-03-31T14:27:59.455Z,65.43
2017-03-31T14:29:12.166Z,66.97
2017-03-31T14:30:24.894Z,66.2
2017-03-31T14:31:38.110Z,64.4
2017-03-31T14:32:51.346Z,63.4
2017-03-31T14:34:04.595Z,64.82
2017-03-31T14:35:17.815Z,65.01
2017-03-31T14:36:31.059Z,66.63
2017-03-31T14:37:43.818Z,67.65
2017-03-31T14:38:57.090Z,68.49
2017-03-31T14:40:10.301Z,67.65
2017-03-31T14:41:23.560Z,66.82
2017-03-31T14:42:36.339Z,68.17
2017-03-31T14:43:49.602Z,68.71
2017-03-31T14:45:01.798Z,67.59
2017-03-31T14:46:15.050Z,68.62
2017-03-31T14:47:27.807Z,68.71
2017-03-31T14:48:40.540Z,65.82
2017-03-31T14:49:53.322Z,67.11
2017-03-31T14:51:06.565Z,67.27
2017-03-31T14:52:19.814Z,66.3
2017-03-31T14:53:32.534Z,66.11
2017-03-31T14:54:45.796Z,64.11
2017-03-31T14:55:58.512Z,62.44
2017-03-31T14:57:11.776Z,59.79
2017-03-31T14:58:23.974Z,61.27
2017-03-31T14:59:37.204Z,62.27
2017-03-31T15:00:50.499Z,62.66
2017-03-31T15:02:03.737Z,62.05
2017-03-31T15:03:16.976Z,62.98
2017-03-31T15:04:29.696Z,64.5
2017-03-31T15:05:42.405Z,64.47
2017-03-31T15:06:55.160Z,65.53
2017-03-31T15:08:08.422Z,64.86
2017-03-31T15:09:21.156Z,64.18
2017-03-31T15:10:33.909Z,64.76
2017-03-31T15:11:46.677Z,64.37
2017-03-31T15:12:59.410Z,63.02
2017-03-31T15:14:12.154Z,63.6
2017-03-31T15:15:25.395Z,63.4
2017-03-31T15:16:37.595Z,63.15
2017-03-31T15:17:50.881Z,61.89
2017-03-31T15:19:04.106Z,62.4
2017-03-31T15:20:16.862Z,62.6
2017-03-31T15:21:30.109Z,60.99
2017-03-31T15:22:42.339Z,58.6
2017-03-31T15:23:55.611Z,57.59
2017-03-31T15:25:08.342Z,58.75
2017-03-31T15:26:21.056Z,58.17
2017-03-31T15:27:33.840Z,58.63
2017-03-31T15:28:47.112Z,59.5
2017-03-31T15:30:00.389Z,61.27
2017-03-31T15:31:13.182Z,61.57
2017-03-31T15:32:26.429Z,61.47
2017-03-31T15:33:39.189Z,59.47
2017-03-31T15:34:51.929Z,60.27
2017-03-31T15:36:04.650Z,57.86
2017-03-31T15:37:17.898Z,59.18
2017-03-31T15:38:31.131Z,61.27
2017-03-31T15:39:44.377Z,63.21
2017-03-31T15:40:56.603Z,62.89